Terminal Aerodrome Forecast
Issued by NWS Wakefield, VA

Current Version | Previous Version | Text Only | Print | Product List | Glossary On
Versions: 1 2 3 4 5 6 7 8 9 10 11 12 13 14 15 16 17 18 19 20 21 22 23 24 25 26 27 28 29 30 31 32 33
263
FTUS41 KAKQ 252323
TAFSBY
TAF
KSBY 252323Z 2600/2624 27004KT P6SM BKN120
     FM260200 VRB03KT 6SM BR BKN015
     FM260400 VRB03KT 5SM BR OVC007
     FM260800 33004KT P6SM SCT007 BKN040
     FM261200 35005KT P6SM SCT100=

USA.gov is the U.S. government's official web portal to all federal, state and local government web resources and services.